Time;durP1;ratioP1;P1;durP2;ratioP2;P2;SDS_P1;SDS_P2;PMS_P1;PMS_P2;Temp;Humidity;BMP_temperature;BMP_pressure;BME280_temperature;BME280_humidity;BME280_pressure;Samples;Min_cycle;Max_cycle;Signal;HPM_P1;HPM_P2
2022/06/09 00:01:37;;;;;;;2.70;2.50;;;17.40;99.90;;;;;;5023222;28;20029;-60
2022/06/09 00:04:19;;;;;;;2.28;2.08;;;17.40;99.90;;;;;;4998727;28;20383;-60
2022/06/09 00:07:21;;;;;;;2.30;2.10;;;17.30;99.90;;;;;;5030112;28;20060;-60
2022/06/09 00:10:01;;;;;;;3.63;2.53;;;17.30;99.90;;;;;;4994465;28;20044;-60
2022/06/09 00:12:27;;;;;;;2.42;2.15;;;17.30;99.90;;;;;;4990720;28;20110;-60
2022/06/09 00:14:56;;;;;;;2.72;2.17;;;17.20;99.90;;;;;;5015135;28;20108;-61
2022/06/09 00:17:23;;;;;;;3.28;2.72;;;17.20;99.90;;;;;;5029497;28;20033;-60
2022/06/09 00:19:48;;;;;;;3.03;2.72;;;17.10;99.90;;;;;;4997653;28;20027;-60
2022/06/09 00:22:14;;;;;;;3.33;3.03;;;17.00;99.90;;;;;;5009360;28;20449;-61
2022/06/09 00:24:39;;;;;;;2.70;2.50;;;16.90;99.90;;;;;;5026792;28;20520;-59
2022/06/09 00:27:05;;;;;;;3.15;2.60;;;16.90;99.90;;;;;;5010450;28;20036;-60
2022/06/09 00:29:30;;;;;;;3.00;2.80;;;16.90;99.90;;;;;;5027005;28;20029;-61
2022/06/09 00:31:56;;;;;;;2.70;2.50;;;16.90;99.90;;;;;;5010365;28;20049;-61
2022/06/09 00:34:21;;;;;;;2.95;2.65;;;16.90;99.90;;;;;;5026805;28;20038;-61
2022/06/09 00:36:47;;;;;;;3.92;2.50;;;16.80;99.90;;;;;;5010492;28;20088;-60
2022/06/09 00:39:13;;;;;;;4.55;3.17;;;16.80;99.90;;;;;;5026719;28;20108;-60
2022/06/09 00:41:40;;;;;;;2.70;2.50;;;16.80;99.90;;;;;;5018989;28;20108;-60
2022/06/09 00:44:22;;;;;;;2.97;2.65;;;16.80;99.90;;;;;;5026885;28;20504;-60
2022/06/09 00:47:11;;;;;;;3.10;2.80;;;16.80;99.90;;;;;;5029485;28;20032;-61
2022/06/09 00:49:51;;;;;;;2.90;2.70;;;16.80;99.90;;;;;;4999885;28;20129;-60
2022/06/09 00:52:19;;;;;;;3.30;3.00;;;16.70;99.90;;;;;;4990099;28;20118;-60
2022/06/09 00:54:49;;;;;;;3.42;3.03;;;16.70;99.90;;;;;;5026596;28;20025;-60
2022/06/09 00:57:21;;;;;;;3.63;2.50;;;16.70;99.90;;;;;;4989962;28;20034;-60
2022/06/09 00:59:50;;;;;;;2.75;2.55;;;16.70;99.90;;;;;;5002694;28;20033;-60
2022/06/09 01:02:19;;;;;;;3.58;2.75;;;16.60;99.90;;;;;;5009487;28;20064;-60
2022/06/09 01:04:47;;;;;;;2.80;2.60;;;16.60;99.90;;;;;;5026773;28;20571;-60
2022/06/09 01:07:17;;;;;;;3.00;2.63;;;16.60;99.90;;;;;;5009598;28;20029;-60
2022/06/09 01:09:43;;;;;;;3.30;2.92;;;16.50;99.90;;;;;;5008885;28;20033;-60
2022/06/09 01:12:30;;;;;;;3.08;2.65;;;16.50;99.90;;;;;;5009756;28;20068;-60
2022/06/09 01:15:02;;;;;;;2.95;2.65;;;16.50;99.90;;;;;;5000115;28;20113;-61
2022/06/09 01:17:52;;;;;;;3.17;2.97;;;16.50;99.90;;;;;;5029015;28;20065;-60
2022/06/09 01:21:00;;;;;;;2.97;2.65;;;16.50;99.90;;;;;;4992462;28;20437;-60
2022/06/09 01:24:03;;;;;;;4.18;2.45;;;16.50;99.90;;;;;;5029080;28;20025;-60
2022/06/09 01:27:09;;;;;;;2.70;2.35;;;16.50;99.90;;;;;;5029005;28;20042;-61
2022/06/09 01:30:06;;;;;;;2.50;2.30;;;16.50;99.90;;;;;;5006166;28;20037;-61
2022/06/09 01:32:42;;;;;;;3.10;2.80;;;16.40;99.90;;;;;;4989691;28;20058;-60
2022/06/09 01:35:29;;;;;;;3.42;3.13;;;16.40;99.90;;;;;;5001671;28;20117;-60
2022/06/09 01:37:58;;;;;;;3.28;2.97;;;16.30;99.90;;;;;;4972124;28;20034;-60
2022/06/09 01:40:24;;;;;;;4.80;2.47;;;16.30;99.90;;;;;;5010056;28;20026;-60
2022/06/09 01:42:52;;;;;;;2.83;2.63;;;16.30;99.90;;;;;;5028596;28;20033;-60
2022/06/09 01:45:20;;;;;;;3.90;3.28;;;16.30;99.90;;;;;;4992278;28;20031;-60
2022/06/09 01:48:02;;;;;;;2.95;2.70;;;16.30;99.90;;;;;;5008584;28;20038;-60
2022/06/09 01:50:35;;;;;;;2.85;2.60;;;16.30;99.90;;;;;;5004235;28;20030;-60
2022/06/09 01:53:04;;;;;;;3.00;2.70;;;16.20;99.90;;;;;;5028703;28;20083;-60
2022/06/09 01:55:32;;;;;;;5.68;3.60;;;16.20;99.90;;;;;;4990327;28;20502;-60
2022/06/09 01:58:01;;;;;;;2.67;2.47;;;16.20;99.90;;;;;;5008534;28;20037;-60
2022/06/09 02:00:28;;;;;;;3.10;2.90;;;16.10;99.90;;;;;;5014738;28;20091;-60
2022/06/09 02:03:02;;;;;;;3.00;2.80;;;16.10;99.90;;;;;;5013066;28;20026;-60
2022/06/09 02:05:32;;;;;;;2.92;2.72;;;16.10;99.90;;;;;;5007814;28;20080;-60
2022/06/09 02:08:02;;;;;;;3.83;3.42;;;16.20;99.90;;;;;;5032128;28;20030;-60
2022/06/09 02:10:29;;;;;;;3.80;3.50;;;16.20;99.90;;;;;;4994118;28;20517;-60
2022/06/09 02:13:01;;;;;;;2.97;2.78;;;16.20;99.90;;;;;;5012048;28;20041;-60
2022/06/09 02:15:36;;;;;;;2.90;2.70;;;16.20;99.90;;;;;;5007472;28;20485;-60
2022/06/09 02:18:12;;;;;;;3.47;3.17;;;16.20;99.90;;;;;;4992864;28;20453;-60
2022/06/09 02:20:44;;;;;;;3.28;3.08;;;16.20;99.90;;;;;;5012159;28;20034;-60
2022/06/09 02:23:12;;;;;;;3.10;2.80;;;16.20;99.90;;;;;;5032199;28;20083;-59
2022/06/09 02:25:39;;;;;;;2.22;2.10;;;16.20;99.90;;;;;;4992642;28;20122;-60
2022/06/09 02:28:06;;;;;;;3.67;3.38;;;16.20;99.90;;;;;;5011530;28;20040;-60
2022/06/09 02:30:32;;;;;;;3.30;3.00;;;16.30;99.90;;;;;;5012448;28;20425;-60
2022/06/09 02:32:57;;;;;;;5.18;2.95;;;16.30;99.90;;;;;;5031153;28;20040;-60
2022/06/09 02:35:23;;;;;;;4.18;2.88;;;16.30;99.90;;;;;;4995078;28;20038;-60
2022/06/09 02:37:48;;;;;;;4.25;2.95;;;16.40;99.90;;;;;;5011327;28;20083;-60
2022/06/09 02:40:14;;;;;;;2.72;2.50;;;16.40;99.90;;;;;;4996706;28;20041;-60
2022/06/09 02:42:39;;;;;;;2.75;2.55;;;16.40;99.90;;;;;;5030662;28;20052;-59
2022/06/09 02:45:07;;;;;;;3.20;2.80;;;16.40;99.90;;;;;;4997299;28;20061;-60
2022/06/09 02:47:33;;;;;;;2.85;2.60;;;16.40;99.90;;;;;;5011498;28;20037;-60
2022/06/09 02:49:58;;;;;;;2.50;2.30;;;16.40;99.90;;;;;;5016452;28;20033;-60
2022/06/09 02:52:24;;;;;;;2.55;2.35;;;16.40;99.90;;;;;;5013094;28;20029;-60
2022/06/09 02:54:49;;;;;;;3.22;2.55;;;16.40;99.90;;;;;;4999256;28;20038;-59
2022/06/09 02:57:15;;;;;;;3.40;2.70;;;16.40;99.90;;;;;;5010949;28;20026;-60
2022/06/09 02:59:40;;;;;;;3.53;3.22;;;16.40;99.90;;;;;;5021426;28;20104;-60
2022/06/09 03:02:05;;;;;;;5.68;2.88;;;16.40;99.90;;;;;;5011954;28;20569;-60
2022/06/09 03:04:31;;;;;;;3.03;2.60;;;16.40;99.90;;;;;;5028495;28;20037;-60
2022/06/09 03:06:56;;;;;;;3.20;2.55;;;16.40;99.90;;;;;;5012040;28;20494;-60
2022/06/09 03:09:23;;;;;;;3.10;2.58;;;16.40;99.90;;;;;;5028605;28;20048;-60
2022/06/09 03:11:49;;;;;;;2.90;2.63;;;16.30;99.90;;;;;;5031111;28;20258;-60
2022/06/09 03:14:14;;;;;;;2.80;2.60;;;16.40;99.90;;;;;;5009818;28;20026;-61
2022/06/09 03:16:40;;;;;;;2.75;2.20;;;16.40;99.90;;;;;;5011386;28;20018;-60
2022/06/09 03:19:05;;;;;;;3.38;2.85;;;16.50;99.90;;;;;;5028355;28;20041;-60
2022/06/09 03:21:31;;;;;;;2.83;2.55;;;16.50;99.90;;;;;;5031074;28;20041;-60
2022/06/09 03:23:58;;;;;;;2.92;2.72;;;16.50;99.90;;;;;;5009700;28;20383;-60
2022/06/09 03:26:24;;;;;;;2.47;2.28;;;16.50;99.90;;;;;;5011109;28;20140;-60
2022/06/09 03:28:51;;;;;;;2.25;2.05;;;16.60;99.90;;;;;;5028285;28;20053;-60
2022/06/09 03:31:17;;;;;;;4.00;2.72;;;16.70;99.90;;;;;;5031110;28;20029;-60
2022/06/09 03:33:43;;;;;;;3.03;2.00;;;16.70;99.90;;;;;;5009469;28;20057;-58
2022/06/09 03:36:09;;;;;;;2.97;2.05;;;17.00;99.90;;;;;;5010980;28;20037;-60
2022/06/09 03:38:35;;;;;;;3.05;1.98;;;17.30;99.90;;;;;;5027954;28;20417;-60
2022/06/09 03:41:00;;;;;;;4.40;2.63;;;17.60;99.90;;;;;;5025598;28;20520;-60
2022/06/09 03:43:26;;;;;;;2.08;1.90;;;18.80;99.90;;;;;;5010950;28;20612;-60
2022/06/09 03:45:51;;;;;;;2.50;2.30;;;19.60;99.90;;;;;;5029193;28;20042;-60
2022/06/09 03:48:17;;;;;;;2.47;2.25;;;19.20;99.90;;;;;;5011159;28;20030;-60
2022/06/09 03:50:43;;;;;;;2.58;2.05;;;19.00;99.90;;;;;;5009440;28;20034;-60
2022/06/09 03:53:09;;;;;;;2.47;1.90;;;18.80;99.90;;;;;;5029694;28;20056;-60
2022/06/09 03:55:35;;;;;;;3.85;2.08;;;18.70;99.90;;;;;;4991860;28;20097;-60
2022/06/09 03:58:01;;;;;;;2.60;2.08;;;18.60;99.90;;;;;;5029122;28;20113;-60
2022/06/09 04:00:29;;;;;;;2.00;1.70;;;19.20;99.90;;;;;;5000309;28;20145;-60
2022/06/09 04:02:55;;;;;;;2.15;1.95;;;20.70;96.30;;;;;;5029832;28;20033;-60
2022/06/09 04:05:21;;;;;;;2.60;1.70;;;21.90;90.10;;;;;;4993639;28;20046;-60
2022/06/09 04:07:46;;;;;;;2.88;1.90;;;23.30;76.90;;;;;;5028955;28;20504;-59
2022/06/09 04:10:18;;;;;;;2.22;1.83;;;22.20;79.80;;;;;;4994662;28;20110;-58
2022/06/09 04:12:44;;;;;;;2.80;1.80;;;21.70;81.80;;;;;;4990835;28;20499;-58
2022/06/09 04:15:09;;;;;;;2.20;1.77;;;21.30;88.10;;;;;;5012986;28;20064;-58
2022/06/09 04:17:36;;;;;;;3.22;1.83;;;21.00;90.00;;;;;;5029242;28;20032;-58
2022/06/09 04:20:03;;;;;;;1.58;1.48;;;22.00;86.10;;;;;;4995842;28;20542;-58
2022/06/09 04:22:28;;;;;;;2.10;1.77;;;23.80;69.90;;;;;;5009487;28;20030;-57
2022/06/09 04:24:55;;;;;;;2.45;1.50;;;24.80;61.40;;;;;;5014818;28;20045;-61
2022/06/09 04:27:21;;;;;;;4.85;1.75;;;24.20;64.70;;;;;;5029260;28;20476;-60
2022/06/09 04:29:46;;;;;;;1.77;1.52;;;24.40;62.20;;;;;;4997830;28;20121;-59
2022/06/09 04:32:12;;;;;;;1.60;1.50;;;24.40;61.00;;;;;;5009345;28;20109;-60
2022/06/09 04:34:37;;;;;;;1.70;1.50;;;24.70;54.50;;;;;;5026951;28;20033;-59
2022/06/09 04:37:03;;;;;;;1.83;1.50;;;25.50;55.60;;;;;;5010415;28;20026;-59
2022/06/09 04:39:29;;;;;;;2.13;1.30;;;24.60;53.10;;;;;;5026853;28;20031;-60
2022/06/09 04:41:54;;;;;;;2.50;1.52;;;25.20;53.90;;;;;;5010286;28;20413;-60
2022/06/09 04:44:20;;;;;;;3.28;1.35;;;24.80;50.50;;;;;;5026676;28;20117;-60
2022/06/09 04:46:45;;;;;;;1.50;1.35;;;23.90;54.60;;;;;;5029610;28;20025;-60
2022/06/09 04:49:10;;;;;;;1.50;1.40;;;23.70;56.70;;;;;;5008063;28;20069;-59
2022/06/09 04:51:36;;;;;;;2.30;1.40;;;23.20;58.50;;;;;;5009718;28;20390;-59
2022/06/09 04:54:02;;;;;;;3.00;1.30;;;22.70;61.50;;;;;;5026760;28;20056;-58
2022/06/09 04:56:27;;;;;;;2.13;1.60;;;22.70;61.10;;;;;;5029393;28;20100;-59
2022/06/09 04:58:53;;;;;;;1.73;1.60;;;22.40;62.80;;;;;;5008003;28;20105;-59
2022/06/09 05:01:24;;;;;;;3.28;1.30;;;24.70;50.80;;;;;;5002428;28;20029;-59
2022/06/09 05:03:50;;;;;;;2.65;1.35;;;25.30;43.50;;;;;;5026790;28;20052;-59
2022/06/09 05:06:18;;;;;;;1.55;1.27;;;27.90;37.70;;;;;;5029169;28;20111;-60
2022/06/09 05:08:44;;;;;;;1.13;1.02;;;29.60;31.90;;;;;;5007698;28;20386;-59
2022/06/09 05:11:10;;;;;;;2.45;1.58;;;29.90;27.50;;;;;;5009674;28;20025;-59
2022/06/09 05:13:35;;;;;;;1.52;1.15;;;31.00;26.70;;;;;;5026429;28;20515;-59
2022/06/09 05:16:02;;;;;;;1.85;1.27;;;32.40;23.30;;;;;;5029216;28;20096;-59
2022/06/09 05:18:30;;;;;;;1.90;1.20;;;33.50;20.10;;;;;;5007801;28;20030;-58
2022/06/09 05:20:57;;;;;;;2.40;1.13;;;33.00;19.00;;;;;;5009372;28;20505;-59
2022/06/09 05:23:23;;;;;;;2.08;1.10;;;33.80;17.80;;;;;;5028628;28;20029;-59
2022/06/09 05:25:51;;;;;;;2.55;1.10;;;35.00;15.50;;;;;;5026865;28;20717;-59
2022/06/09 05:28:18;;;;;;;2.13;1.05;;;36.00;13.30;;;;;;5009514;28;20026;-59
2022/06/09 05:30:43;;;;;;;1.00;0.82;;;36.80;12.80;;;;;;5008156;28;20034;-59
2022/06/09 05:33:10;;;;;;;1.67;0.88;;;37.30;11.20;;;;;;5028270;28;20040;-59
2022/06/09 05:35:36;;;;;;;1.90;0.80;;;37.80;10.10;;;;;;4991772;28;20042;-59
2022/06/09 05:46:34;;;;;;;1.40;0.63;;;39.60;6.30;;;;;;4972371;28;20035;-59
2022/06/09 05:49:00;;;;;;;1.27;0.70;;;40.10;5.40;;;;;;4979282;28;20090;-59
2022/06/09 05:51:26;;;;;;;1.00;0.60;;;40.90;4.60;;;;;;4985570;28;20096;-59
2022/06/09 05:53:51;;;;;;;1.13;0.70;;;41.70;3.50;;;;;;5011052;28;20022;-59
2022/06/09 05:56:17;;;;;;;1.08;0.70;;;42.00;2.50;;;;;;4998756;28;20153;-60
2022/06/09 05:58:43;;;;;;;1.52;0.93;;;41.90;1.00;;;;;;5021094;28;20386;-60
2022/06/09 06:01:13;;;;;;;0.88;0.65;;;41.00;1.30;;;;;;5005852;28;20030;-60
2022/06/09 06:03:40;;;;;;;1.55;0.98;;;41.30;1.00;;;;;;4992167;28;20085;-60
2022/06/09 06:08:50;;;;;;;1.05;0.85;;;40.00;1.00;;;;;;4992311;28;20725;-59
2022/06/09 06:11:16;;;;;;;1.70;0.80;;;39.60;1.10;;;;;;5017974;28;20066;-61
2022/06/09 06:13:43;;;;;;;0.85;0.70;;;38.00;1.30;;;;;;5031634;28;20034;-59
2022/06/09 06:16:09;;;;;;;0.82;0.75;;;36.80;1.90;;;;;;5010839;28;20117;-60
2022/06/09 06:18:35;;;;;;;0.98;0.73;;;35.30;3.00;;;;;;5031519;28;20477;-60
2022/06/09 06:21:01;;;;;;;1.48;0.70;;;33.90;4.00;;;;;;5011010;28;20414;-59
2022/06/09 06:23:27;;;;;;;2.35;0.82;;;32.60;4.90;;;;;;5031376;28;20083;-60
2022/06/09 06:25:54;;;;;;;1.33;0.80;;;33.90;4.70;;;;;;5010592;28;20042;-59
2022/06/09 06:28:20;;;;;;;1.70;0.85;;;36.40;2.80;;;;;;5030054;28;20040;-59
2022/06/09 06:30:46;;;;;;;1.45;0.90;;;37.00;1.00;;;;;;5010877;28;20105;-59
2022/06/09 06:33:12;;;;;;;1.48;1.00;;;36.00;1.00;;;;;;5012051;28;20013;-60
2022/06/09 06:35:37;;;;;;;1.27;0.88;;;35.10;1.60;;;;;;5028961;28;20125;-59
2022/06/09 06:38:03;;;;;;;1.17;0.77;;;36.60;1.60;;;;;;5031645;28;20668;-59
2022/06/09 06:40:28;;;;;;;0.90;0.80;;;36.40;1.00;;;;;;5010273;28;20057;-59
2022/06/09 06:42:54;;;;;;;1.80;0.80;;;36.10;1.00;;;;;;5011790;28;20080;-59
2022/06/09 06:45:19;;;;;;;1.30;0.80;;;35.70;1.10;;;;;;5028921;28;20397;-59
2022/06/09 06:47:45;;;;;;;1.90;0.88;;;36.80;1.20;;;;;;5030927;28;20104;-59
2022/06/09 06:50:12;;;;;;;2.17;1.02;;;37.70;1.00;;;;;;5010284;28;20034;-59
2022/06/09 06:52:38;;;;;;;1.88;1.00;;;36.20;1.00;;;;;;5011833;28;20120;-59
2022/06/09 06:55:05;;;;;;;1.55;1.00;;;35.50;1.10;;;;;;5028682;28;20114;-60
2022/06/09 06:57:31;;;;;;;1.30;0.95;;;36.90;1.00;;;;;;5031279;28;20017;-59
2022/06/09 06:59:58;;;;;;;1.65;0.70;;;38.90;1.00;;;;;;5011217;28;20018;-59
2022/06/09 07:02:23;;;;;;;3.17;0.80;;;37.60;1.00;;;;;;5011504;28;20038;-59
2022/06/09 07:04:49;;;;;;;1.42;0.82;;;36.80;1.00;;;;;;5030386;28;20531;-59
2022/06/09 07:07:14;;;;;;;1.38;0.98;;;35.50;1.00;;;;;;5029301;28;20041;-59
2022/06/09 07:09:40;;;;;;;0.80;0.60;;;35.10;1.00;;;;;;4994148;28;20037;-59
2022/06/09 07:12:06;;;;;;;2.72;0.93;;;34.10;1.70;;;;;;5010612;28;20113;-59
2022/06/09 07:14:33;;;;;;;2.35;0.82;;;33.70;2.20;;;;;;5030428;28;20408;-59
2022/06/09 07:17:00;;;;;;;1.17;0.90;;;35.80;1.30;;;;;;4992770;28;20034;-59
2022/06/09 07:19:25;;;;;;;1.30;0.70;;;37.20;1.00;;;;;;5010529;28;20033;-59
2022/06/09 07:21:51;;;;;;;1.13;0.80;;;38.40;1.00;;;;;;5012464;28;20489;-59
2022/06/09 07:24:16;;;;;;;3.33;1.02;;;39.90;1.00;;;;;;5030068;28;20025;-60
2022/06/09 07:26:42;;;;;;;1.52;0.90;;;40.80;1.00;;;;;;4995131;28;20113;-59
2022/06/09 07:29:07;;;;;;;1.30;0.80;;;41.90;1.00;;;;;;5010327;28;20112;-60
2022/06/09 07:31:33;;;;;;;1.48;0.80;;;42.10;1.00;;;;;;5014681;28;20042;-60
2022/06/09 07:33:59;;;;;;;0.82;0.73;;;41.20;1.00;;;;;;5029804;28;20034;-59
2022/06/09 07:36:26;;;;;;;1.52;0.77;;;41.20;1.00;;;;;;4997363;28;20105;-60
2022/06/09 07:38:52;;;;;;;1.55;0.88;;;40.30;1.00;;;;;;5029386;28;20175;-60
2022/06/09 07:41:20;;;;;;;1.42;0.80;;;39.20;1.00;;;;;;4998105;28;20046;-59
2022/06/09 07:43:46;;;;;;;1.75;1.00;;;38.30;1.00;;;;;;5010153;28;20117;-59
2022/06/09 07:46:12;;;;;;;1.38;0.68;;;39.50;1.00;;;;;;5027795;28;20047;-59
2022/06/09 07:48:37;;;;;;;1.33;0.70;;;38.80;1.00;;;;;;5011118;28;20116;-60
2022/06/09 07:51:03;;;;;;;1.45;0.93;;;37.60;1.00;;;;;;5027682;28;20033;-59
2022/06/09 07:53:29;;;;;;;0.60;0.60;;;37.10;1.00;;;;;;5010965;28;20057;-59
2022/06/09 07:55:55;;;;;;;1.73;0.82;;;36.40;1.00;;;;;;5027462;28;20041;-59
2022/06/09 07:58:20;;;;;;;1.08;0.82;;;35.70;1.00;;;;;;5009889;28;20030;-59
2022/06/09 08:00:47;;;;;;;1.30;0.63;;;35.10;1.00;;;;;;5023682;28;20124;-59
2022/06/09 08:03:18;;;;;;;1.20;0.80;;;34.40;1.00;;;;;;5029886;28;20033;-59
2022/06/09 08:05:43;;;;;;;1.08;0.80;;;33.40;1.00;;;;;;5008300;28;20064;-59
2022/06/09 08:08:09;;;;;;;1.52;0.90;;;32.80;1.70;;;;;;5010272;28;20053;-59
2022/06/09 08:10:34;;;;;;;1.05;0.90;;;32.60;2.00;;;;;;5027184;28;20056;-59
2022/06/09 08:13:02;;;;;;;1.58;0.68;;;32.40;2.30;;;;;;5029882;28;20038;-59
2022/06/09 08:15:30;;;;;;;2.58;0.60;;;32.60;2.50;;;;;;5008397;28;20029;-59
2022/06/09 08:17:57;;;;;;;1.38;0.50;;;31.90;3.40;;;;;;5009869;28;20478;-59
2022/06/09 08:20:23;;;;;;;1.33;0.68;;;31.80;3.60;;;;;;5027445;28;20041;-59
2022/06/09 08:22:49;;;;;;;3.88;0.70;;;31.60;3.90;;;;;;5029446;28;20030;-59
2022/06/09 08:25:17;;;;;;;0.35;0.32;;;31.20;4.60;;;;;;5008510;28;20091;-59
2022/06/09 08:27:43;;;;;;;1.25;0.50;;;31.00;4.80;;;;;;5009922;28;20022;-59
2022/06/09 08:30:11;;;;;;;3.10;0.80;;;30.70;5.20;;;;;;5026682;28;20033;-59
2022/06/09 08:32:38;;;;;;;1.13;0.73;;;30.60;5.60;;;;;;5029555;28;20017;-59
2022/06/09 08:35:05;;;;;;;2.83;0.95;;;30.50;5.80;;;;;;5008391;28;20108;-59
2022/06/09 08:37:31;;;;;;;1.58;0.95;;;30.60;5.70;;;;;;5009673;28;20101;-59
2022/06/09 08:39:57;;;;;;;1.58;0.82;;;30.60;5.80;;;;;;5026478;28;20155;-59
2022/06/09 08:42:48;;;;;;;2.38;1.00;;;31.30;5.50;;;;;;5029171;28;20124;-59
2022/06/09 08:45:19;;;;;;;2.25;1.00;;;31.20;5.70;;;;;;4993331;28;20481;-59
2022/06/09 08:47:54;;;;;;;1.42;0.93;;;31.40;5.50;;;;;;5029242;28;20022;-59
2022/06/09 08:50:39;;;;;;;5.07;1.00;;;31.50;5.10;;;;;;5007730;28;20037;-60
2022/06/09 08:53:17;;;;;;;3.13;0.70;;;30.90;5.90;;;;;;5009571;28;20084;-59
2022/06/09 08:55:55;;;;;;;2.25;1.10;;;30.30;6.40;;;;;;5001149;28;20040;-59
2022/06/09 08:58:40;;;;;;;1.25;0.50;;;29.60;7.40;;;;;;5029514;28;20022;-59
2022/06/09 09:01:12;;;;;;;4.23;0.70;;;29.10;7.90;;;;;;4999217;28;20044;-59
2022/06/09 09:03:40;;;;;;;0.95;0.60;;;28.90;8.30;;;;;;5009759;28;20026;-60
2022/06/09 09:06:33;;;;;;;0.45;0.45;;;28.70;8.40;;;;;;5026758;28;20456;-59
2022/06/09 09:09:12;;;;;;;0.68;0.60;;;28.50;9.60;;;;;;4989559;28;20494;-57
2022/06/09 09:11:59;;;;;;;0.73;0.47;;;28.50;9.30;;;;;;5001723;28;20481;-58
2022/06/09 09:14:44;;;;;;;0.70;0.55;;;29.00;8.80;;;;;;4989654;28;20027;-58
2022/06/09 09:17:22;;;;;;;4.00;0.80;;;30.10;7.90;;;;;;5008446;28;20026;-58
2022/06/09 09:20:02;;;;;;;1.10;0.60;;;30.10;7.40;;;;;;4989380;28;20023;-58
2022/06/09 09:22:58;;;;;;;0.90;0.60;;;29.80;7.90;;;;;;4989230;28;20026;-59
2022/06/09 09:25:35;;;;;;;0.93;0.60;;;29.50;8.80;;;;;;4995291;28;20030;-58
2022/06/09 09:28:17;;;;;;;1.08;0.68;;;28.80;9.50;;;;;;5028497;28;20057;-58
2022/06/09 09:31:21;;;;;;;1.00;0.70;;;28.00;11.10;;;;;;5000899;28;20048;-57
2022/06/09 09:33:46;;;;;;;1.33;0.68;;;27.60;12.60;;;;;;5009585;28;20033;-57
2022/06/09 09:36:28;;;;;;;0.85;0.60;;;27.20;12.30;;;;;;5025984;28;20414;-57
2022/06/09 09:39:11;;;;;;;3.33;0.80;;;26.90;13.30;;;;;;4989269;28;20449;-48
2022/06/09 09:41:38;;;;;;;2.05;0.80;;;26.50;14.10;;;;;;5001234;28;20053;-60
2022/06/09 09:44:17;;;;;;;2.05;0.60;;;25.70;14.90;;;;;;5027973;28;20029;-61
2022/06/09 09:46:51;;;;;;;0.88;0.60;;;25.30;17.00;;;;;;4992360;28;20041;-60
2022/06/09 09:49:32;;;;;;;1.10;0.70;;;25.10;16.30;;;;;;4989513;28;20030;-60
2022/06/09 09:51:59;;;;;;;1.70;0.70;;;24.80;17.30;;;;;;5004153;28;20038;-61
2022/06/09 09:54:36;;;;;;;1.50;0.70;;;24.40;17.80;;;;;;5027744;28;20403;-60
2022/06/09 09:57:22;;;;;;;2.85;0.98;;;24.20;18.80;;;;;;5004639;28;20394;-60
2022/06/09 09:59:51;;;;;;;1.02;0.60;;;24.00;20.90;;;;;;4995741;28;20038;-60
2022/06/09 10:11:53;;;;;;;2.10;0.80;;;23.50;20.90;;;;;;5005930;28;20091;-60
2022/06/09 10:13:55;;;;;;;1.55;0.80;;;23.50;21.40;;;;;;4988849;28;20031;-60
2022/06/09 10:16:21;;;;;;;1.88;0.90;;;23.30;22.30;;;;;;5013886;28;20437;-60
2022/06/09 10:18:52;;;;;;;1.30;0.80;;;23.10;23.50;;;;;;5027528;28;20030;-60
2022/06/09 10:21:18;;;;;;;1.50;0.93;;;23.10;24.20;;;;;;5010496;28;20033;-61
2022/06/09 10:23:55;;;;;;;1.00;0.88;;;23.10;23.90;;;;;;5012582;28;20076;-60
2022/06/09 10:26:29;;;;;;;2.28;1.02;;;23.10;24.20;;;;;;5014076;28;20072;-60
2022/06/09 10:29:04;;;;;;;3.63;2.55;;;23.20;24.80;;;;;;4992368;28;20038;-60
2022/06/09 10:31:37;;;;;;;3.45;1.13;;;23.40;24.50;;;;;;5003512;28;20044;-60
2022/06/09 10:34:13;;;;;;;3.80;1.23;;;23.60;24.20;;;;;;5031661;28;20109;-60
2022/06/09 10:36:47;;;;;;;2.45;1.50;;;23.90;25.00;;;;;;5004578;28;20034;-60
2022/06/09 10:39:23;;;;;;;2.47;1.38;;;24.10;26.30;;;;;;5030585;28;20500;-60
2022/06/09 10:41:56;;;;;;;1.17;1.08;;;24.40;24.80;;;;;;5016826;28;20151;-60
2022/06/09 10:44:30;;;;;;;1.63;0.90;;;24.60;22.70;;;;;;4992173;28;20051;-60
2022/06/09 10:55:54;;;;;;;2.33;1.23;;;25.70;20.10;;;;;;5004093;28;20070;-59
2022/06/09 10:58:38;;;;;;;2.15;1.52;;;25.80;20.30;;;;;;5031342;28;20018;-60
2022/06/09 11:01:04;;;;;;;2.78;1.58;;;25.70;21.10;;;;;;5001537;28;20037;-60
2022/06/09 11:03:42;;;;;;;2.08;1.50;;;25.20;21.70;;;;;;5011878;28;20038;-60
2022/06/09 11:06:35;;;;;;;1.90;1.20;;;25.00;22.20;;;;;;5009746;28;20422;-60
2022/06/09 11:09:15;;;;;;;1.23;1.10;;;25.40;21.90;;;;;;4991774;28;20040;-60
2022/06/09 11:12:03;;;;;;;1.13;1.05;;;25.70;21.40;;;;;;5004229;28;20029;-60
2022/06/09 11:14:32;;;;;;;3.33;1.30;;;25.80;21.10;;;;;;5031084;28;20030;-60
2022/06/09 11:17:09;;;;;;;1.67;1.05;;;25.90;20.50;;;;;;4993281;28;20137;-60
2022/06/09 11:20:06;;;;;;;1.85;1.25;;;26.20;20.10;;;;;;4991456;28;20045;-60
2022/06/09 11:22:55;;;;;;;2.55;1.20;;;26.30;20.00;;;;;;4991606;28;20062;-60
2022/06/09 11:25:37;;;;;;;1.23;1.05;;;26.40;19.60;;;;;;4996672;28;20029;-60
2022/06/09 11:28:23;;;;;;;1.98;1.17;;;26.40;19.60;;;;;;5030716;28;20022;-60
2022/06/09 11:31:32;;;;;;;2.35;1.15;;;26.60;19.70;;;;;;5004155;28;20053;-60
2022/06/09 11:34:35;;;;;;;1.77;1.25;;;26.70;19.20;;;;;;4948742;28;20035;-60
2022/06/09 11:37:38;;;;;;;1.42;1.30;;;26.90;18.80;;;;;;5008769;28;20034;-60
2022/06/09 11:40:21;;;;;;;2.33;1.60;;;27.10;18.30;;;;;;5027757;28;20022;-59
2022/06/09 11:42:58;;;;;;;6.47;2.53;;;27.20;17.80;;;;;;5030105;28;20037;-60
2022/06/09 11:45:51;;;;;;;4.03;1.50;;;26.70;18.20;;;;;;4996861;28;20570;-60
2022/06/09 11:48:33;;;;;;;2.42;1.42;;;26.30;19.50;;;;;;5030239;28;20116;-60
2022/06/09 11:51:00;;;;;;;1.77;1.33;;;26.40;19.30;;;;;;5008571;28;20018;-60
2022/06/09 11:53:29;;;;;;;2.17;1.35;;;26.40;19.20;;;;;;5029688;28;20028;-60
2022/06/09 11:56:40;;;;;;;3.63;1.17;;;26.40;19.20;;;;;;5008326;28;20029;-60
2022/06/09 11:59:11;;;;;;;1.75;1.60;;;26.60;18.80;;;;;;4990665;28;20034;-60
2022/06/09 12:01:40;;;;;;;2.83;1.27;;;26.70;18.50;;;;;;4999192;28;20092;-60
2022/06/09 12:04:35;;;;;;;2.53;1.98;;;26.60;18.60;;;;;;5029049;28;20045;-60
2022/06/09 12:07:06;;;;;;;3.58;2.05;;;26.40;19.00;;;;;;4988098;28;20030;-60
2022/06/09 12:09:43;;;;;;;2.70;1.55;;;26.20;19.70;;;;;;5029462;28;20124;-60
2022/06/09 12:12:24;;;;;;;1.58;1.23;;;25.70;20.30;;;;;;4990325;28;20034;-60
2022/06/09 12:15:18;;;;;;;2.80;1.42;;;25.50;20.80;;;;;;4990541;28;20428;-60
2022/06/09 12:18:07;;;;;;;2.58;1.63;;;25.20;21.70;;;;;;4990322;28;20038;-60
2022/06/09 12:20:47;;;;;;;2.30;1.58;;;25.10;22.20;;;;;;4999115;28;20144;-60
2022/06/09 12:23:34;;;;;;;4.82;1.65;;;25.10;22.10;;;;;;5029573;28;20030;-60
2022/06/09 12:26:16;;;;;;;1.88;1.70;;;25.00;24.30;;;;;;5008037;28;20454;-59
2022/06/09 12:28:44;;;;;;;1.83;1.58;;;25.10;23.40;;;;;;4990526;28;20477;-59
2022/06/09 12:31:13;;;;;;;3.92;1.58;;;25.10;22.70;;;;;;5027001;28;20053;-60
2022/06/09 12:33:53;;;;;;;1.77;1.63;;;25.00;23.50;;;;;;5009885;28;20390;-60
2022/06/09 12:36:32;;;;;;;2.35;1.70;;;24.80;23.40;;;;;;5011041;28;20034;-60
2022/06/09 12:39:00;;;;;;;1.60;1.48;;;25.00;23.20;;;;;;4990058;28;20046;-60
2022/06/09 12:41:38;;;;;;;1.80;1.30;;;25.20;22.40;;;;;;5014396;28;20070;-60
2022/06/09 12:44:15;;;;;;;2.38;1.52;;;25.40;21.70;;;;;;4989504;28;20026;-60
2022/06/09 12:46:41;;;;;;;1.63;1.42;;;25.60;20.90;;;;;;5002504;28;20057;-60
2022/06/09 12:49:34;;;;;;;1.85;1.20;;;25.70;20.40;;;;;;5028750;28;20101;-60
2022/06/09 12:52:00;;;;;;;2.35;1.30;;;25.90;20.20;;;;;;5000561;28;20107;-60
2022/06/09 12:54:30;;;;;;;2.33;1.58;;;26.10;19.80;;;;;;5018136;28;20097;-60
2022/06/09 12:57:12;;;;;;;1.67;1.30;;;26.00;19.60;;;;;;5009182;28;20515;-61
2022/06/09 12:59:40;;;;;;;3.90;1.63;;;26.00;19.30;;;;;;4990619;28;20090;-49
2022/06/09 13:02:26;;;;;;;1.40;1.30;;;25.90;19.60;;;;;;5002213;28;20565;-48
2022/06/09 13:04:56;;;;;;;2.28;1.45;;;25.70;19.20;;;;;;4991349;28;20069;-52
2022/06/09 13:07:34;;;;;;;1.80;1.70;;;25.50;19.90;;;;;;5016084;28;20532;-51
2022/06/09 13:10:05;;;;;;;3.13;1.70;;;25.30;20.20;;;;;;4990599;28;20066;-49
2022/06/09 13:15:33;;;;;;;1.83;1.33;;;25.00;20.70;;;;;;4995460;28;20100;-51
2022/06/09 13:18:00;;;;;;;2.15;1.70;;;24.90;21.40;;;;;;5023668;28;20044;-51
2022/06/09 13:20:25;;;;;;;3.85;1.80;;;24.80;21.30;;;;;;4994537;28;20076;-52
2022/06/09 13:22:52;;;;;;;2.15;1.38;;;24.70;21.40;;;;;;5012391;28;20066;-47
2022/06/09 13:25:22;;;;;;;2.85;1.48;;;24.60;21.50;;;;;;5007386;28;20034;-49
2022/06/09 13:27:49;;;;;;;2.15;1.30;;;24.70;21.70;;;;;;4992935;28;20129;-47
2022/06/09 13:30:47;;;;;;;2.65;1.67;;;24.70;21.50;;;;;;4993305;28;20074;-53
2022/06/09 13:33:26;;;;;;;5.70;2.05;;;24.70;22.30;;;;;;4989510;28;20031;-53
2022/06/09 13:36:07;;;;;;;4.38;1.77;;;24.60;22.20;;;;;;4997636;28;20080;-50
2022/06/09 13:38:34;;;;;;;3.20;2.05;;;24.60;22.20;;;;;;5001160;28;20112;-48
2022/06/09 13:41:29;;;;;;;2.40;1.73;;;24.60;22.40;;;;;;5002444;28;20823;-50
2022/06/09 13:44:07;;;;;;;2.45;1.73;;;24.60;22.40;;;;;;4995088;28;20088;-52
2022/06/09 13:46:37;;;;;;;2.75;1.80;;;24.70;22.30;;;;;;5000977;28;20229;-53